Campbellsport, Ohio
Current Conditions -  °F | °C
As of 4:18 PM on Thursday 23 Oct 2014 (Local Time) from KPOV Reporting Station
Scattered Clouds Scattered Clouds  
Wind Chill: 54°   Ceiling: Unl
Heat Index: 54°   Visibility: 10mi
Dew Point: 41°   Wind: 10mph
Humidity: 62%   Direction: 330°NNW
Pressure: 30.12"   Gusts: NA
Location:  41.1736°N, 81.1686°W
Report Text: KPOV 232018Z AUTO 33009KT 10SM SCT025 12/05 A3012 RMK AO2 T01210050
Loading
Personal Weather Stations






























Interactive Weather Map
Tropical Storm Tracking
New forecast layout! Learn more

10-Day Weather Forecast

Advertisements
Track Severe Weather on mobile